Time;durP1;ratioP1;P1;durP2;ratioP2;P2;SDS_P1;SDS_P2;PMS_P1;PMS_P2;Temp;Humidity;BMP_temperature;BMP_pressure;BME280_temperature;BME280_humidity;BME280_pressure;Samples;Min_cycle;Max_cycle;Signal;HPM_P1;HPM_P2
2023/05/15 00:00:57;;;;;;;;;;;;;;;;;;5044434;28;19920;-84
2023/05/15 00:03:43;;;;;;;;;;;;;;;;;;5035807;28;20300;-84
2023/05/15 00:06:30;;;;;;;;;;;;;;;;;;5045035;28;19921;-84
2023/05/15 00:09:16;;;;;;;;;;;;;;;;;;5042681;28;19923;-84
2023/05/15 00:12:03;;;;;;;;;;;;;;;;;;5039494;28;20125;-85
2023/05/15 00:14:49;;;;;;;;;;;;;;;;;;5037679;28;19935;-85
2023/05/15 00:17:36;;;;;;;;;;;;;;;;;;5039945;28;19928;-85
2023/05/15 00:20:22;;;;;;;;;;;;;;;;;;5040304;28;19950;-84
2023/05/15 00:23:09;;;;;;;;;;;;;;;;;;5041266;28;19920;-84
2023/05/15 00:25:55;;;;;;;;;;;;;;;;;;5041967;28;19920;-83
2023/05/15 00:28:42;;;;;;;;;;;;;;;;;;5038478;28;19919;-83
2023/05/15 00:31:28;;;;;;;;;;;;;;;;;;5036094;28;20361;-84
2023/05/15 00:34:15;;;;;;;;;;;;;;;;;;5040812;28;20176;-86
2023/05/15 00:37:01;;;;;;;;;;;;;;;;;;5029757;28;20442;-86
2023/05/15 00:39:48;;;;;;;;;;;;;;;;;;5037796;28;19928;-87
2023/05/15 00:42:34;;;;;;;;;;;;;;;;;;5036645;28;19925;-86
2023/05/15 00:45:21;;;;;;;;;;;;;;;;;;5038156;28;19921;-87
2023/05/15 00:48:07;;;;;;;;;;;;;;;;;;5044126;28;20556;-86
2023/05/15 00:50:54;;;;;;;;;;;;;;;;;;5035091;28;19913;-86
2023/05/15 00:53:40;;;;;;;;;;;;;;;;;;5028998;28;19917;-85
2023/05/15 00:56:27;;;;;;;;;;;;;;;;;;5042306;28;20659;-85
2023/05/15 00:59:13;;;;;;;;;;;;;;;;;;5033373;28;19923;-85
2023/05/15 01:01:59;;;;;;;;;;;;;;;;;;5029299;28;19920;-91
2023/05/15 01:04:46;;;;;;;;;;;;;;;;;;5034559;28;19937;-83
2023/05/15 01:07:32;;;;;;;;;;;;;;;;;;5035846;28;20368;-83
2023/05/15 01:10:19;;;;;;;;;;;;;;;;;;5057813;28;19916;-83
2023/05/15 01:13:05;;;;;;;;;;;;;;;;;;5034140;28;19936;-83
2023/05/15 01:15:52;;;;;;;;;;;;;;;;;;5029878;28;20408;-83
2023/05/15 01:18:38;;;;;;;;;;;;;;;;;;5052477;28;19921;-83
2023/05/15 01:21:25;;;;;;;;;;;;;;;;;;5045817;28;19932;-82
2023/05/15 01:24:11;;;;;;;;;;;;;;;;;;5048169;28;19920;-82
2023/05/15 01:26:58;;;;;;;;;;;;;;;;;;5041630;28;19917;-83
2023/05/15 01:29:44;;;;;;;;;;;;;;;;;;5027168;28;19923;-83
2023/05/15 01:32:31;;;;;;;;;;;;;;;;;;5037866;28;19921;-83
2023/05/15 01:35:17;;;;;;;;;;;;;;;;;;5043071;28;20334;-82
2023/05/15 01:38:04;;;;;;;;;;;;;;;;;;5051458;28;19913;-82
2023/05/15 01:40:50;;;;;;;;;;;;;;;;;;5050667;28;19921;-83
2023/05/15 01:43:37;;;;;;;;;;;;;;;;;;5033376;28;19913;-82
2023/05/15 01:46:23;;;;;;;;;;;;;;;;;;5029142;28;19941;-82
2023/05/15 01:49:10;;;;;;;;;;;;;;;;;;5043968;28;19913;-82
2023/05/15 01:51:56;;;;;;;;;;;;;;;;;;5045000;28;19916;-83
2023/05/15 01:54:43;;;;;;;;;;;;;;;;;;5031699;28;19928;-83
2023/05/15 01:57:29;;;;;;;;;;;;;;;;;;5044341;28;20008;-83
2023/05/15 02:00:16;;;;;;;;;;;;;;;;;;5035381;28;19921;-82
2023/05/15 02:03:02;;;;;;;;;;;;;;;;;;5036467;28;19931;-81
2023/05/15 02:05:49;;;;;;;;;;;;;;;;;;5034184;28;20447;-82
2023/05/15 02:08:35;;;;;;;;;;;;;;;;;;5032036;28;19947;-82
2023/05/15 02:11:22;;;;;;;;;;;;;;;;;;5046447;28;20593;-81
2023/05/15 02:14:08;;;;;;;;;;;;;;;;;;5039886;28;19921;-81
2023/05/15 02:16:55;;;;;;;;;;;;;;;;;;5049540;28;19931;-81
2023/05/15 02:19:41;;;;;;;;;;;;;;;;;;5037358;28;19921;-82
2023/05/15 02:22:28;;;;;;;;;;;;;;;;;;5040506;28;19928;-81
2023/05/15 02:25:14;;;;;;;;;;;;;;;;;;5042725;28;20668;-82
2023/05/15 02:28:01;;;;;;;;;;;;;;;;;;5022728;28;19925;-83
2023/05/15 02:30:47;;;;;;;;;;;;;;;;;;5028534;28;19929;-82
2023/05/15 02:33:34;;;;;;;;;;;;;;;;;;5035734;28;20363;-82
2023/05/15 02:36:21;;;;;;;;;;;;;;;;;;5034929;28;19936;-82
2023/05/15 02:39:08;;;;;;;;;;;;;;;;;;5036973;28;19924;-82
2023/05/15 02:41:54;;;;;;;;;;;;;;;;;;5052400;28;19931;-83
2023/05/15 02:44:41;;;;;;;;;;;;;;;;;;5046512;28;19917;-83
2023/05/15 02:47:27;;;;;;;;;;;;;;;;;;5042182;28;20344;-83
2023/05/15 02:50:14;;;;;;;;;;;;;;;;;;5042267;28;20387;-82
2023/05/15 02:53:00;;;;;;;;;;;;;;;;;;5038688;28;19921;-83
2023/05/15 02:55:47;;;;;;;;;;;;;;;;;;5041662;28;19936;-82
2023/05/15 02:58:33;;;;;;;;;;;;;;;;;;5036769;28;20028;-83
2023/05/15 03:01:20;;;;;;;;;;;;;;;;;;5042487;28;19967;-81
2023/05/15 03:04:06;;;;;;;;;;;;;;;;;;5028031;28;19924;-82
2023/05/15 03:06:53;;;;;;;;;;;;;;;;;;5041308;28;19925;-83
2023/05/15 03:09:39;;;;;;;;;;;;;;;;;;5037524;28;19916;-82
2023/05/15 03:12:25;;;;;;;;;;;;;;;;;;5031796;28;19928;-86
2023/05/15 03:15:12;;;;;;;;;;;;;;;;;;5040700;28;19933;-88
2023/05/15 03:17:58;;;;;;;;;;;;;;;;;;5035342;28;19918;-87
2023/05/15 03:20:45;;;;;;;;;;;;;;;;;;5037196;28;19917;-87
2023/05/15 03:23:31;;;;;;;;;;;;;;;;;;5036197;28;19920;-87
2023/05/15 03:26:18;;;;;;;;;;;;;;;;;;5035220;28;19917;-85
2023/05/15 03:29:04;;;;;;;;;;;;;;;;;;5031841;28;19951;-85
2023/05/15 03:31:51;;;;;;;;;;;;;;;;;;5037904;28;20447;-83
2023/05/15 03:34:37;;;;;;;;;;;;;;;;;;5039653;28;19920;-84
2023/05/15 03:37:24;;;;;;;;;;;;;;;;;;5038357;28;19936;-86
2023/05/15 03:40:10;;;;;;;;;;;;;;;;;;5039620;28;20419;-84
2023/05/15 03:42:57;;;;;;;;;;;;;;;;;;5042247;28;19925;-85
2023/05/15 03:45:43;;;;;;;;;;;;;;;;;;5045086;28;19927;-85
2023/05/15 03:48:30;;;;;;;;;;;;;;;;;;5043022;28;20918;-85
2023/05/15 03:51:16;;;;;;;;;;;;;;;;;;5038279;28;19921;-87
2023/05/15 03:54:04;;;;;;;;;;;;;;;;;;5043843;28;19921;-87
2023/05/15 03:56:51;;;;;;;;;;;;;;;;;;5038988;28;19925;-86
2023/05/15 03:59:37;;;;;;;;;;;;;;;;;;5041537;28;19956;-88
2023/05/15 04:02:23;;;;;;;;;;;;;;;;;;5034040;28;19917;-87
2023/05/15 04:05:10;;;;;;;;;;;;;;;;;;5037907;28;19921;-87
2023/05/15 04:07:56;;;;;;;;;;;;;;;;;;5038844;28;19920;-89
2023/05/15 04:10:43;;;;;;;;;;;;;;;;;;5035721;28;19921;-87
2023/05/15 04:13:29;;;;;;;;;;;;;;;;;;5040396;28;19947;-87
2023/05/15 04:16:16;;;;;;;;;;;;;;;;;;5042287;28;19939;-88
2023/05/15 04:19:02;;;;;;;;;;;;;;;;;;5037472;28;19925;-81
2023/05/15 04:21:49;;;;;;;;;;;;;;;;;;5041322;28;19951;-87
2023/05/15 04:24:35;;;;;;;;;;;;;;;;;;5039181;28;19927;-88
2023/05/15 04:27:22;;;;;;;;;;;;;;;;;;5039822;28;19925;-87
2023/05/15 04:30:08;;;;;;;;;;;;;;;;;;5041437;28;19917;-87
2023/05/15 04:32:55;;;;;;;;;;;;;;;;;;5040077;28;20581;-89
2023/05/15 04:35:42;;;;;;;;;;;;;;;;;;5036901;28;20392;-85
2023/05/15 04:38:29;;;;;;;;;;;;;;;;;;5039430;28;19921;-86
2023/05/15 04:41:15;;;;;;;;;;;;;;;;;;5038308;28;19913;-86
2023/05/15 04:44:02;;;;;;;;;;;;;;;;;;5039458;28;19917;-86
2023/05/15 04:46:48;;;;;;;;;;;;;;;;;;5027537;28;20301;-85
2023/05/15 04:49:35;;;;;;;;;;;;;;;;;;5040244;28;20647;-86
2023/05/15 04:52:21;;;;;;;;;;;;;;;;;;5036306;28;19917;-86
2023/05/15 04:55:08;;;;;;;;;;;;;;;;;;5037285;28;19929;-86
2023/05/15 04:57:54;;;;;;;;;;;;;;;;;;5038051;28;19947;-86
2023/05/15 05:00:41;;;;;;;;;;;;;;;;;;5045197;28;20400;-85
2023/05/15 05:03:28;;;;;;;;;;;;;;;;;;5041015;28;19920;-85
2023/05/15 05:06:14;;;;;;;;;;;;;;;;;;5039175;28;20329;-85
2023/05/15 05:09:02;;;;;;;;;;;;;;;;;;5040469;28;19921;-84
2023/05/15 05:11:48;;;;;;;;;;;;;;;;;;5037848;28;20257;-87
2023/05/15 05:14:35;;;;;;;;;;;;;;;;;;5038394;28;19929;-88
2023/05/15 05:17:21;;;;;;;;;;;;;;;;;;5037723;28;19943;-86
2023/05/15 05:20:08;;;;;;;;;;;;;;;;;;5038996;28;19916;-87
2023/05/15 05:22:54;;;;;;;;;;;;;;;;;;5040853;28;19917;-88
2023/05/15 05:25:41;;;;;;;;;;;;;;;;;;5030444;28;19917;-86
2023/05/15 05:28:28;;;;;;;;;;;;;;;;;;5037875;28;19921;-87
2023/05/15 05:31:14;;;;;;;;;;;;;;;;;;5036546;28;19953;-87
2023/05/15 05:34:01;;;;;;;;;;;;;;;;;;5037923;28;20475;-89
2023/05/15 05:36:47;;;;;;;;;;;;;;;;;;5031950;28;19941;-89
2023/05/15 05:39:34;;;;;;;;;;;;;;;;;;5039589;28;20382;-88
2023/05/15 05:42:20;;;;;;;;;;;;;;;;;;5044748;28;19921;-88
2023/05/15 05:45:07;;;;;;;;;;;;;;;;;;5042977;28;19929;-87
2023/05/15 05:47:53;;;;;;;;;;;;;;;;;;5038229;28;20046;-88
2023/05/15 05:50:40;;;;;;;;;;;;;;;;;;5042656;28;20291;-87
2023/05/15 05:53:27;;;;;;;;;;;;;;;;;;5037681;28;20678;-87
2023/05/15 05:56:13;;;;;;;;;;;;;;;;;;5039283;28;19925;-87
2023/05/15 05:59:00;;;;;;;;;;;;;;;;;;5036836;28;20008;-87
2023/05/15 06:01:49;;;;;;;;;;;;;;;;;;5033362;28;19927;-87
2023/05/15 06:04:36;;;;;;;;;;;;;;;;;;5040999;28;19918;-87
2023/05/15 06:07:22;;;;;;;;;;;;;;;;;;5041016;28;23140;-87
2023/05/15 06:10:09;;;;;;;;;;;;;;;;;;5042192;28;19913;-87
2023/05/15 06:12:55;;;;;;;;;;;;;;;;;;5049187;28;19917;-87
2023/05/15 06:15:42;;;;;;;;;;;;;;;;;;5035345;28;19939;-88
2023/05/15 06:18:28;;;;;;;;;;;;;;;;;;5034363;28;19998;-89
2023/05/15 06:21:15;;;;;;;;;;;;;;;;;;5050482;28;19924;-88
2023/05/15 06:24:01;;;;;;;;;;;;;;;;;;5044171;28;19932;-89
2023/05/15 06:26:48;;;;;;;;;;;;;;;;;;5037330;28;20335;-88
2023/05/15 06:29:34;;;;;;;;;;;;;;;;;;5027118;28;20748;-87
2023/05/15 06:32:21;;;;;;;;;;;;;;;;;;5039072;28;19921;-88
2023/05/15 06:35:07;;;;;;;;;;;;;;;;;;5056577;28;19944;-87
2023/05/15 06:37:54;;;;;;;;;;;;;;;;;;5046672;28;20265;-87
2023/05/15 06:40:40;;;;;;;;;;;;;;;;;;5027551;28;19916;-88
2023/05/15 06:43:27;;;;;;;;;;;;;;;;;;5035419;28;19928;-87
2023/05/15 06:46:15;;;;;;;;;;;;;;;;;;5034540;28;19932;-88
2023/05/15 06:49:02;;;;;;;;;;;;;;;;;;5038556;28;19927;-88
2023/05/15 06:51:48;;;;;;;;;;;;;;;;;;5026040;28;20067;-88
2023/05/15 06:54:35;;;;;;;;;;;;;;;;;;5033705;28;19923;-87
2023/05/15 06:57:21;;;;;;;;;;;;;;;;;;5033370;28;19925;-88
2023/05/15 07:00:08;;;;;;;;;;;;;;;;;;5036716;28;19921;-87
2023/05/15 07:02:56;;;;;;;;;;;;;;;;;;5040851;28;19920;-86
2023/05/15 07:05:42;;;;;;;;;;;;;;;;;;5039130;28;20289;-87
2023/05/15 07:08:29;;;;;;;;;;;;;;;;;;5045940;28;20376;-87
2023/05/15 07:11:15;;;;;;;;;;;;;;;;;;5034498;28;20339;-87
2023/05/15 07:14:02;;;;;;;;;;;;;;;;;;5026907;28;19931;-88
2023/05/15 07:16:48;;;;;;;;;;;;;;;;;;5023541;28;19948;-88
2023/05/15 07:19:35;;;;;;;;;;;;;;;;;;5031536;28;20036;-88
2023/05/15 07:22:21;;;;;;;;;;;;;;;;;;5036864;28;19924;-88
2023/05/15 07:25:08;;;;;;;;;;;;;;;;;;5038386;28;19940;-86
2023/05/15 07:27:54;;;;;;;;;;;;;;;;;;5037174;28;19931;-87
2023/05/15 07:30:41;;;;;;;;;;;;;;;;;;5040156;28;19923;-88
2023/05/15 07:33:27;;;;;;;;;;;;;;;;;;5034132;28;19932;-88
2023/05/15 07:36:14;;;;;;;;;;;;;;;;;;5044731;28;20019;-88
2023/05/15 07:39:00;;;;;;;;;;;;;;;;;;5037079;28;19921;-89
2023/05/15 07:41:47;;;;;;;;;;;;;;;;;;5029823;28;19921;-88
2023/05/15 07:44:33;;;;;;;;;;;;;;;;;;5042080;28;19927;-88
2023/05/15 07:47:20;;;;;;;;;;;;;;;;;;5036295;28;19920;-88
2023/05/15 07:50:06;;;;;;;;;;;;;;;;;;5036824;28;19923;-88
2023/05/15 07:52:52;;;;;;;;;;;;;;;;;;5041668;28;19936;-87
2023/05/15 07:55:39;;;;;;;;;;;;;;;;;;5044189;28;21728;-88
2023/05/15 07:58:26;;;;;;;;;;;;;;;;;;5040818;28;19921;-88
2023/05/15 08:01:12;;;;;;;;;;;;;;;;;;5037875;28;20610;-88
2023/05/15 08:03:59;;;;;;;;;;;;;;;;;;5040093;28;19921;-87
2023/05/15 08:06:45;;;;;;;;;;;;;;;;;;5037134;28;19921;-87
2023/05/15 08:09:32;;;;;;;;;;;;;;;;;;5025273;28;19924;-88
2023/05/15 08:12:19;;;;;;;;;;;;;;;;;;5026640;28;19924;-88
2023/05/15 08:15:06;;;;;;;;;;;;;;;;;;5035768;28;20352;-86
2023/05/15 08:17:52;;;;;;;;;;;;;;;;;;5028009;28;19928;-88
2023/05/15 08:20:39;;;;;;;;;;;;;;;;;;5031452;28;20380;-88
2023/05/15 08:23:26;;;;;;;;;;;;;;;;;;5041925;28;19920;-88
2023/05/15 08:26:12;;;;;;;;;;;;;;;;;;5045146;28;19919;-87
2023/05/15 08:28:59;;;;;;;;;;;;;;;;;;5034984;28;19943;-86
2023/05/15 08:31:45;;;;;;;;;;;;;;;;;;5037363;28;19921;-87
2023/05/15 08:34:32;;;;;;;;;;;;;;;;;;5043568;28;19924;-87
2023/05/15 08:37:18;;;;;;;;;;;;;;;;;;5040821;28;19928;-86
2023/05/15 08:40:06;;;;;;;;;;;;;;;;;;5034883;28;19927;-87
2023/05/15 08:42:53;;;;;;;;;;;;;;;;;;5034412;28;19943;-87
2023/05/15 08:45:40;;;;;;;;;;;;;;;;;;5041528;28;19923;-88
2023/05/15 08:48:26;;;;;;;;;;;;;;;;;;5038608;28;19921;-87
2023/05/15 08:51:13;;;;;;;;;;;;;;;;;;5038721;28;19920;-86
2023/05/15 08:53:59;;;;;;;;;;;;;;;;;;5042935;28;19921;-87
2023/05/15 08:56:46;;;;;;;;;;;;;;;;;;5039738;28;19929;-86
2023/05/15 08:59:32;;;;;;;;;;;;;;;;;;5038469;28;19921;-88
2023/05/15 09:02:19;;;;;;;;;;;;;;;;;;5030865;28;20277;-86
2023/05/15 09:05:05;;;;;;;;;;;;;;;;;;5040296;28;19927;-86
2023/05/15 09:07:53;;;;;;;;;;;;;;;;;;5037723;28;20391;-86
2023/05/15 09:10:39;;;;;;;;;;;;;;;;;;5038473;28;19921;-86
2023/05/15 09:13:26;;;;;;;;;;;;;;;;;;5039178;28;19920;-86
2023/05/15 09:16:12;;;;;;;;;;;;;;;;;;5047853;28;19940;-85
2023/05/15 09:18:59;;;;;;;;;;;;;;;;;;5049048;28;19959;-86
2023/05/15 09:21:45;;;;;;;;;;;;;;;;;;5035401;28;20394;-86
2023/05/15 09:24:31;;;;;;;;;;;;;;;;;;5037497;28;20388;-86
2023/05/15 09:27:18;;;;;;;;;;;;;;;;;;5046017;28;19927;-86
2023/05/15 09:30:05;;;;;;;;;;;;;;;;;;5038702;28;19921;-86
2023/05/15 09:32:51;;;;;;;;;;;;;;;;;;5034222;28;19937;-85
2023/05/15 09:35:38;;;;;;;;;;;;;;;;;;5046646;28;19951;-85
2023/05/15 09:38:24;;;;;;;;;;;;;;;;;;5036599;28;19917;-85
2023/05/15 09:41:11;;;;;;;;;;;;;;;;;;5035661;28;20662;-85
2023/05/15 09:43:57;;;;;;;;;;;;;;;;;;5045569;28;19924;-85
2023/05/15 09:46:44;;;;;;;;;;;;;;;;;;5041983;28;19936;-85
2023/05/15 09:49:30;;;;;;;;;;;;;;;;;;5043335;28;19927;-85
2023/05/15 09:52:17;;;;;;;;;;;;;;;;;;5041958;28;19921;-85
2023/05/15 09:55:03;;;;;;;;;;;;;;;;;;5045191;28;20373;-84
2023/05/15 09:57:50;;;;;;;;;;;;;;;;;;5042714;28;19925;-85
2023/05/15 10:00:37;;;;;;;;;;;;;;;;;;5041701;28;19917;-85
2023/05/15 10:03:23;;;;;;;;;;;;;;;;;;5042852;28;19924;-85
2023/05/15 10:06:10;;;;;;;;;;;;;;;;;;5044602;28;19952;-85
2023/05/15 10:08:57;;;;;;;;;;;;;;;;;;5044565;28;19923;-86
2023/05/15 10:11:43;;;;;;;;;;;;;;;;;;5043375;28;20019;-86
2023/05/15 10:14:30;;;;;;;;;;;;;;;;;;5044081;28;19929;-86
2023/05/15 10:17:16;;;;;;;;;;;;;;;;;;5037074;28;20615;-86
2023/05/15 10:20:05;;;;;;;;;;;;;;;;;;5043139;28;19932;-83
2023/05/15 10:22:52;;;;;;;;;;;;;;;;;;5048936;28;19921;-85
2023/05/15 10:25:38;;;;;;;;;;;;;;;;;;5042744;28;20031;-85
2023/05/15 10:28:25;;;;;;;;;;;;;;;;;;5045990;28;20375;-84
2023/05/15 10:31:11;;;;;;;;;;;;;;;;;;5044879;28;20043;-84
2023/05/15 10:33:58;;;;;;;;;;;;;;;;;;5039342;28;19936;-84
2023/05/15 10:36:44;;;;;;;;;;;;;;;;;;5036931;28;20063;-84
2023/05/15 10:39:31;;;;;;;;;;;;;;;;;;5043188;28;19927;-84
2023/05/15 10:42:17;;;;;;;;;;;;;;;;;;5043255;28;20391;-84
2023/05/15 10:45:04;;;;;;;;;;;;;;;;;;5041009;28;19924;-84
2023/05/15 10:47:50;;;;;;;;;;;;;;;;;;5022043;28;20169;-84
2023/05/15 10:50:37;;;;;;;;;;;;;;;;;;5034298;28;19919;-83
2023/05/15 10:53:23;;;;;;;;;;;;;;;;;;5035428;28;19955;-84
2023/05/15 10:56:10;;;;;;;;;;;;;;;;;;5039724;28;19951;-85
2023/05/15 10:58:56;;;;;;;;;;;;;;;;;;5038172;28;19917;-85
2023/05/15 11:01:43;;;;;;;;;;;;;;;;;;5048934;28;19921;-83
2023/05/15 11:04:29;;;;;;;;;;;;;;;;;;5060801;28;19920;-84
2023/05/15 11:07:17;;;;;;;;;;;;;;;;;;5043713;28;20608;-82
2023/05/15 11:10:03;;;;;;;;;;;;;;;;;;5037910;28;19921;-83
2023/05/15 11:12:49;;;;;;;;;;;;;;;;;;5036342;28;19920;-83
2023/05/15 11:15:36;;;;;;;;;;;;;;;;;;5037025;28;19936;-84
2023/05/15 11:18:22;;;;;;;;;;;;;;;;;;5038966;28;19928;-84
2023/05/15 11:21:09;;;;;;;;;;;;;;;;;;5034556;28;20356;-83
2023/05/15 11:23:55;;;;;;;;;;;;;;;;;;5035009;28;19921;-84
2023/05/15 11:26:42;;;;;;;;;;;;;;;;;;5038378;28;20655;-84
2023/05/15 11:29:28;;;;;;;;;;;;;;;;;;5040455;28;20399;-84
2023/05/15 11:32:15;;;;;;;;;;;;;;;;;;5045983;28;19936;-83
2023/05/15 11:35:02;;;;;;;;;;;;;;;;;;5043492;28;19947;-84
2023/05/15 11:37:49;;;;;;;;;;;;;;;;;;5039025;28;19976;-82
2023/05/15 11:40:35;;;;;;;;;;;;;;;;;;5037746;28;20388;-83
2023/05/15 11:43:23;;;;;;;;;;;;;;;;;;5042234;28;19924;-82
2023/05/15 11:46:11;;;;;;;;;;;;;;;;;;5036824;28;19967;-82
2023/05/15 11:48:57;;;;;;;;;;;;;;;;;;5042002;28;19927;-80
2023/05/15 11:51:44;;;;;;;;;;;;;;;;;;5035502;28;19959;-85
2023/05/15 11:54:31;;;;;;;;;;;;;;;;;;5039394;28;19933;-85
2023/05/15 11:57:17;;;;;;;;;;;;;;;;;;5036537;28;19929;-84
2023/05/15 12:00:05;;;;;;;;;;;;;;;;;;5050729;28;19933;-84
2023/05/15 12:02:51;;;;;;;;;;;;;;;;;;5038795;28;19917;-84
2023/05/15 12:05:38;;;;;;;;;;;;;;;;;;5039419;28;19931;-84
2023/05/15 12:08:24;;;;;;;;;;;;;;;;;;5040752;28;20296;-84
2023/05/15 12:11:11;;;;;;;;;;;;;;;;;;5043141;28;19921;-84
2023/05/15 12:13:57;;;;;;;;;;;;;;;;;;5041220;28;19935;-85
2023/05/15 12:16:44;;;;;;;;;;;;;;;;;;5041060;28;19933;-84
2023/05/15 12:19:30;;;;;;;;;;;;;;;;;;5036837;28;20301;-84
2023/05/15 12:22:17;;;;;;;;;;;;;;;;;;5040678;28;20408;-84
2023/05/15 12:25:04;;;;;;;;;;;;;;;;;;5036353;28;19921;-81
2023/05/15 12:27:50;;;;;;;;;;;;;;;;;;5040359;28;19921;-84
2023/05/15 12:30:37;;;;;;;;;;;;;;;;;;5038468;28;19923;-84
2023/05/15 12:33:23;;;;;;;;;;;;;;;;;;5040455;28;19921;-84
2023/05/15 12:36:10;;;;;;;;;;;;;;;;;;5039605;28;19948;-84
2023/05/15 12:38:56;;;;;;;;;;;;;;;;;;5040814;28;19923;-85
2023/05/15 12:41:44;;;;;;;;;;;;;;;;;;5037826;28;20292;-84
2023/05/15 12:44:30;;;;;;;;;;;;;;;;;;5043733;28;19924;-85
2023/05/15 12:47:16;;;;;;;;;;;;;;;;;;5042266;28;20296;-84
2023/05/15 12:50:03;;;;;;;;;;;;;;;;;;5042228;28;19932;-85
2023/05/15 12:52:49;;;;;;;;;;;;;;;;;;5035468;28;19917;-84
2023/05/15 12:55:36;;;;;;;;;;;;;;;;;;5031721;28;19921;-84
2023/05/15 12:58:22;;;;;;;;;;;;;;;;;;5033648;28;19929;-84
2023/05/15 13:01:09;;;;;;;;;;;;;;;;;;5047790;28;19921;-84
2023/05/15 13:03:55;;;;;;;;;;;;;;;;;;5041828;28;19921;-84
2023/05/15 13:06:42;;;;;;;;;;;;;;;;;;5042323;28;20377;-85
2023/05/15 13:09:29;;;;;;;;;;;;;;;;;;5044686;28;19928;-85
2023/05/15 13:12:15;;;;;;;;;;;;;;;;;;5039985;28;19917;-85
2023/05/15 13:15:02;;;;;;;;;;;;;;;;;;5042141;28;19929;-85
2023/05/15 13:17:48;;;;;;;;;;;;;;;;;;5036201;28;20414;-84
2023/05/15 13:20:35;;;;;;;;;;;;;;;;;;5035452;28;19931;-83
2023/05/15 13:23:24;;;;;;;;;;;;;;;;;;5038453;28;19921;-84
2023/05/15 13:26:11;;;;;;;;;;;;;;;;;;5043193;28;20394;-83
2023/05/15 13:28:57;;;;;;;;;;;;;;;;;;5035647;28;19917;-85
2023/05/15 13:31:44;;;;;;;;;;;;;;;;;;5030458;28;20586;-85
2023/05/15 13:34:30;;;;;;;;;;;;;;;;;;5048709;28;20860;-85
2023/05/15 13:37:17;;;;;;;;;;;;;;;;;;5031347;28;19931;-85
2023/05/15 13:40:05;;;;;;;;;;;;;;;;;;5044136;28;19913;-85
2023/05/15 13:42:52;;;;;;;;;;;;;;;;;;5041090;28;19932;-86
2023/05/15 13:45:38;;;;;;;;;;;;;;;;;;5042893;28;19928;-78
2023/05/15 13:48:25;;;;;;;;;;;;;;;;;;5036530;28;20377;-85
2023/05/15 13:51:11;;;;;;;;;;;;;;;;;;5039425;28;19916;-85
2023/05/15 13:53:58;;;;;;;;;;;;;;;;;;5041049;28;19921;-86
2023/05/15 13:56:44;;;;;;;;;;;;;;;;;;5037730;28;20340;-85
2023/05/15 13:59:31;;;;;;;;;;;;;;;;;;5038258;28;19928;-84
2023/05/15 14:02:17;;;;;;;;;;;;;;;;;;5020673;28;19976;-85
2023/05/15 14:05:04;;;;;;;;;;;;;;;;;;5033478;28;19917;-85
2023/05/15 14:07:50;;;;;;;;;;;;;;;;;;5038108;28;19921;-84
2023/05/15 14:10:37;;;;;;;;;;;;;;;;;;5033738;28;19917;-84
2023/05/15 14:13:23;;;;;;;;;;;;;;;;;;5030823;28;20351;-86
2023/05/15 14:16:10;;;;;;;;;;;;;;;;;;5030160;28;19936;-84
2023/05/15 14:18:56;;;;;;;;;;;;;;;;;;5041571;28;19943;-85
2023/05/15 14:21:43;;;;;;;;;;;;;;;;;;5041459;28;19921;-85
2023/05/15 14:24:29;;;;;;;;;;;;;;;;;;5039075;28;19920;-84
2023/05/15 14:27:16;;;;;;;;;;;;;;;;;;5047797;28;19940;-84
2023/05/15 14:30:03;;;;;;;;;;;;;;;;;;5037632;28;20369;-85
2023/05/15 14:32:49;;;;;;;;;;;;;;;;;;5039842;28;20312;-85
2023/05/15 14:35:36;;;;;;;;;;;;;;;;;;5049606;28;19921;-85
2023/05/15 14:38:22;;;;;;;;;;;;;;;;;;5042446;28;19929;-85
2023/05/15 14:41:09;;;;;;;;;;;;;;;;;;5036145;28;19924;-85
2023/05/15 14:43:55;;;;;;;;;;;;;;;;;;5041660;28;19925;-84
2023/05/15 14:46:42;;;;;;;;;;;;;;;;;;5033683;28;19940;-84
2023/05/15 14:49:28;;;;;;;;;;;;;;;;;;5037292;28;19917;-84
2023/05/15 14:52:15;;;;;;;;;;;;;;;;;;5039743;28;20398;-83
2023/05/15 14:55:02;;;;;;;;;;;;;;;;;;5026787;28;19921;-83
2023/05/15 14:57:48;;;;;;;;;;;;;;;;;;5024191;28;19929;-80
2023/05/15 15:00:35;;;;;;;;;;;;;;;;;;5034229;28;19921;-79
2023/05/15 15:03:23;;;;;;;;;;;;;;;;;;5034733;28;19920;-81
2023/05/15 15:06:09;;;;;;;;;;;;;;;;;;5034072;28;19917;-80
2023/05/15 15:08:56;;;;;;;;;;;;;;;;;;5036096;28;19925;-80
2023/05/15 15:11:42;;;;;;;;;;;;;;;;;;5025626;28;20025;-80
2023/05/15 15:14:29;;;;;;;;;;;;;;;;;;5032163;28;19929;-81
2023/05/15 15:17:15;;;;;;;;;;;;;;;;;;5042510;28;19933;-81
2023/05/15 15:20:04;;;;;;;;;;;;;;;;;;5038021;28;19921;-82
2023/05/15 15:22:50;;;;;;;;;;;;;;;;;;5028239;28;19928;-79
2023/05/15 15:25:37;;;;;;;;;;;;;;;;;;5042064;28;20302;-79
2023/05/15 15:28:23;;;;;;;;;;;;;;;;;;5041821;28;19944;-79
2023/05/15 15:31:11;;;;;;;;;;;;;;;;;;5034973;28;19916;-81
2023/05/15 15:33:57;;;;;;;;;;;;;;;;;;5034370;28;19928;-79
2023/05/15 15:36:44;;;;;;;;;;;;;;;;;;5038427;28;19963;-80
2023/05/15 15:39:30;;;;;;;;;;;;;;;;;;5043380;28;19921;-80
2023/05/15 15:42:17;;;;;;;;;;;;;;;;;;5040818;28;19927;-79
2023/05/15 15:45:03;;;;;;;;;;;;;;;;;;5045698;28;19921;-80
2023/05/15 15:47:50;;;;;;;;;;;;;;;;;;5031356;28;19994;-80
2023/05/15 15:50:36;;;;;;;;;;;;;;;;;;5037282;28;19921;-80
2023/05/15 15:53:23;;;;;;;;;;;;;;;;;;5039105;28;19932;-79
2023/05/15 15:56:09;;;;;;;;;;;;;;;;;;5044587;28;19929;-79
2023/05/15 15:58:55;;;;;;;;;;;;;;;;;;5032274;28;19924;-77
2023/05/15 16:01:42;;;;;;;;;;;;;;;;;;5034968;28;19927;-77
2023/05/15 16:04:28;;;;;;;;;;;;;;;;;;5040604;28;19927;-77
2023/05/15 16:07:15;;;;;;;;;;;;;;;;;;5043849;28;19948;-78
2023/05/15 16:10:01;;;;;;;;;;;;;;;;;;5045986;28;19921;-78
2023/05/15 16:12:49;;;;;;;;;;;;;;;;;;5040607;28;20578;-79
2023/05/15 16:15:36;;;;;;;;;;;;;;;;;;5031273;28;19944;-78
2023/05/15 16:18:22;;;;;;;;;;;;;;;;;;5033012;28;20293;-79
2023/05/15 16:21:09;;;;;;;;;;;;;;;;;;5031846;28;19919;-78
2023/05/15 16:23:55;;;;;;;;;;;;;;;;;;5035517;28;20272;-78
2023/05/15 16:26:42;;;;;;;;;;;;;;;;;;5038759;28;19931;-78
2023/05/15 16:29:28;;;;;;;;;;;;;;;;;;5028402;28;19921;-78
2023/05/15 16:32:15;;;;;;;;;;;;;;;;;;5029580;28;20764;-83
2023/05/15 16:35:01;;;;;;;;;;;;;;;;;;5039829;28;19927;-84
2023/05/15 16:37:48;;;;;;;;;;;;;;;;;;5042729;28;19929;-85
2023/05/15 16:40:34;;;;;;;;;;;;;;;;;;5039355;28;21037;-84
2023/05/15 16:43:21;;;;;;;;;;;;;;;;;;5044953;28;19917;-85
2023/05/15 16:46:07;;;;;;;;;;;;;;;;;;5040689;28;19931;-83
2023/05/15 16:48:54;;;;;;;;;;;;;;;;;;5040503;28;19921;-84
2023/05/15 16:51:40;;;;;;;;;;;;;;;;;;5047759;28;19931;-83
2023/05/15 16:54:27;;;;;;;;;;;;;;;;;;5045597;28;19920;-83
2023/05/15 16:57:13;;;;;;;;;;;;;;;;;;5044452;28;19931;-82
2023/05/15 17:00:00;;;;;;;;;;;;;;;;;;5035968;28;19917;-83
2023/05/15 17:02:46;;;;;;;;;;;;;;;;;;5041764;28;19951;-82
2023/05/15 17:05:33;;;;;;;;;;;;;;;;;;5037385;28;21072;-83
2023/05/15 17:08:19;;;;;;;;;;;;;;;;;;5046751;28;19991;-83
2023/05/15 17:11:06;;;;;;;;;;;;;;;;;;5038569;28;21595;-82
2023/05/15 17:13:52;;;;;;;;;;;;;;;;;;5036384;28;19927;-78
2023/05/15 17:16:39;;;;;;;;;;;;;;;;;;5037881;28;19938;-79
2023/05/15 17:19:25;;;;;;;;;;;;;;;;;;5025867;28;20379;-78
2023/05/15 17:22:12;;;;;;;;;;;;;;;;;;5036189;28;19920;-79
2023/05/15 17:24:58;;;;;;;;;;;;;;;;;;5034815;28;20280;-78
2023/05/15 17:27:45;;;;;;;;;;;;;;;;;;5042754;28;19927;-79
2023/05/15 17:30:31;;;;;;;;;;;;;;;;;;5033108;28;20392;-78
2023/05/15 17:33:18;;;;;;;;;;;;;;;;;;5041188;28;20377;-79
2023/05/15 17:36:04;;;;;;;;;;;;;;;;;;5044749;28;20296;-78
2023/05/15 17:38:51;;;;;;;;;;;;;;;;;;5040573;28;19925;-79
2023/05/15 17:41:37;;;;;;;;;;;;;;;;;;5049645;28;19947;-79
2023/05/15 17:44:28;;;;;;;;;;;;;;;;;;5040227;28;19921;-78
2023/05/15 17:47:15;;;;;;;;;;;;;;;;;;5037611;28;19921;-77
2023/05/15 17:50:01;;;;;;;;;;;;;;;;;;5038078;28;19913;-79
2023/05/15 17:52:48;;;;;;;;;;;;;;;;;;5040083;28;20380;-78
2023/05/15 17:55:34;;;;;;;;;;;;;;;;;;5042711;28;19917;-80
2023/05/15 17:58:21;;;;;;;;;;;;;;;;;;5044639;28;19928;-78
2023/05/15 18:01:07;;;;;;;;;;;;;;;;;;5043618;28;19917;-78
2023/05/15 18:03:54;;;;;;;;;;;;;;;;;;5042368;28;19916;-78
2023/05/15 18:06:40;;;;;;;;;;;;;;;;;;5039767;28;19936;-79
2023/05/15 18:09:27;;;;;;;;;;;;;;;;;;5044870;28;19917;-78
2023/05/15 18:12:13;;;;;;;;;;;;;;;;;;5035873;28;19923;-77
2023/05/15 18:15:00;;;;;;;;;;;;;;;;;;5044534;28;20298;-77
2023/05/15 18:17:46;;;;;;;;;;;;;;;;;;5034675;28;19933;-77
2023/05/15 18:20:33;;;;;;;;;;;;;;;;;;5027438;28;19923;-77
2023/05/15 18:23:19;;;;;;;;;;;;;;;;;;5028769;28;19940;-77
2023/05/15 18:26:06;;;;;;;;;;;;;;;;;;5048491;28;19920;-77
2023/05/15 18:28:52;;;;;;;;;;;;;;;;;;5031106;28;19928;-78
2023/05/15 18:31:39;;;;;;;;;;;;;;;;;;5034745;28;19917;-78
2023/05/15 18:34:25;;;;;;;;;;;;;;;;;;5037932;28;19921;-77
2023/05/15 18:37:12;;;;;;;;;;;;;;;;;;5031945;28;19940;-76
2023/05/15 18:39:58;;;;;;;;;;;;;;;;;;5031044;28;20022;-78
2023/05/15 18:42:45;;;;;;;;;;;;;;;;;;5033458;28;19924;-78
2023/05/15 18:45:31;;;;;;;;;;;;;;;;;;5022062;28;19927;-78
2023/05/15 18:48:18;;;;;;;;;;;;;;;;;;5029812;28;19923;-77
2023/05/15 18:51:04;;;;;;;;;;;;;;;;;;5024408;28;19917;-78
2023/05/15 18:53:51;;;;;;;;;;;;;;;;;;5047629;28;19924;-79
2023/05/15 18:56:37;;;;;;;;;;;;;;;;;;5025203;28;19925;-80